createdAt,value
2018-08-09T10:01:36.143Z,47.25
2018-08-09T10:02:36.067Z,47.44
2018-08-09T10:03:36.038Z,47.34
2018-08-09T10:04:36.007Z,47.91
2018-08-09T10:05:35.965Z,46.93
2018-08-09T10:06:35.939Z,47.13
2018-08-09T10:07:35.893Z,47.32
2018-08-09T10:08:35.837Z,48.41
2018-08-09T10:09:35.784Z,46.73
2018-08-09T10:10:35.738Z,47.03
2018-08-09T10:11:35.693Z,47.81
2018-08-09T10:12:35.654Z,47.10
2018-08-09T10:13:35.617Z,46.91
2018-08-09T10:14:35.552Z,46.91
2018-08-09T10:15:35.487Z,47.00
2018-08-09T10:16:35.435Z,47.50
2018-08-09T10:17:35.382Z,46.91
2018-08-09T10:18:35.328Z,46.81
2018-08-09T10:19:35.293Z,46.22
2018-08-09T10:20:35.235Z,46.41
2018-08-09T10:21:35.197Z,45.72
2018-08-09T10:22:35.142Z,45.72
2018-08-09T10:23:35.104Z,45.03
2018-08-09T10:24:35.055Z,46.01
2018-08-09T10:25:35.027Z,45.52
2018-08-09T10:26:34.971Z,45.03
2018-08-09T10:27:34.923Z,45.03
2018-08-09T10:28:34.875Z,45.32
2018-08-09T10:29:34.833Z,45.03
2018-08-09T10:30:34.776Z,45.03
2018-08-09T10:31:34.773Z,45.13
2018-08-09T10:32:34.679Z,45.82
2018-08-09T10:33:34.622Z,45.60
2018-08-09T10:34:34.585Z,45.50
2018-08-09T10:35:34.591Z,45.01
2018-08-09T10:36:34.495Z,44.93
2018-08-09T10:37:34.495Z,45.01
2018-08-09T10:38:34.401Z,45.01
2018-08-09T10:39:34.345Z,44.51
2018-08-09T10:40:34.298Z,45.01
2018-08-09T10:41:34.258Z,44.89
2018-08-09T10:42:34.213Z,44.69
2018-08-09T10:43:34.168Z,45.08
2018-08-09T10:44:34.104Z,44.98
2018-08-09T10:45:34.047Z,45.28
2018-08-09T10:46:33.995Z,44.49
2018-08-09T10:47:33.936Z,45.01
2018-08-09T10:48:33.880Z,45.18
2018-08-09T10:49:33.846Z,45.08
2018-08-09T10:50:33.776Z,44.98
2018-08-09T10:51:33.732Z,45.38
2018-08-09T10:52:33.672Z,44.00
2018-08-09T10:53:33.625Z,44.96
2018-08-09T10:54:33.579Z,44.59
2018-08-09T10:55:33.570Z,44.79
2018-08-09T10:56:33.472Z,45.08
2018-08-09T10:57:33.424Z,44.79
2018-08-09T10:58:33.356Z,45.36
2018-08-09T10:59:53.241Z,44.33
2018-08-09T11:00:53.231Z,42.04
2018-08-09T11:01:53.177Z,42.02
2018-08-09T11:02:53.143Z,41.83
2018-08-09T11:03:53.110Z,41.90
2018-08-09T11:04:53.077Z,41.49
2018-08-09T11:05:53.040Z,40.92
2018-08-09T11:06:53.018Z,40.43
2018-08-09T11:07:52.971Z,42.30
2018-08-09T11:08:52.917Z,41.49
2018-08-09T11:09:52.910Z,40.53
2018-08-09T11:10:52.843Z,42.91
2018-08-09T11:11:52.773Z,42.30
2018-08-09T11:12:52.741Z,41.78
2018-08-09T11:13:52.669Z,42.18
2018-08-09T11:14:52.609Z,40.61
2018-08-09T11:15:52.572Z,41.09
2018-08-09T11:16:52.532Z,41.51
2018-08-09T11:17:52.448Z,41.41
2018-08-09T11:18:52.398Z,40.19
2018-08-09T11:19:52.338Z,40.09
2018-08-09T11:20:52.281Z,40.37
2018-08-09T11:21:52.237Z,40.31
2018-08-09T11:22:52.192Z,40.70
2018-08-09T11:23:52.114Z,40.31
2018-08-09T11:24:52.091Z,40.23
2018-08-09T11:25:52.015Z,40.41
2018-08-09T11:26:51.961Z,40.62
2018-08-09T11:27:51.939Z,40.33
2018-08-09T11:28:51.889Z,40.01
2018-08-09T11:29:51.835Z,40.53
2018-08-09T11:30:51.789Z,40.05
2018-08-09T11:31:51.746Z,40.51
2018-08-09T11:32:51.703Z,39.82
2018-08-09T11:33:51.666Z,41.22
2018-08-09T11:34:51.591Z,40.51
2018-08-09T11:35:51.539Z,38.34
2018-08-09T11:36:51.507Z,38.58
2018-08-09T11:37:51.459Z,40.23
2018-08-09T11:38:51.398Z,40.03
2018-08-09T11:39:51.447Z,40.09
2018-08-09T11:40:51.286Z,38.21
2018-08-09T11:41:51.236Z,38.62
2018-08-09T11:42:51.187Z,38.01
2018-08-09T11:43:51.126Z,37.23
2018-08-09T11:44:51.093Z,35.74
2018-08-09T11:45:51.022Z,36.55
2018-08-09T11:46:50.943Z,38.54
2018-08-09T11:47:50.898Z,38.42
2018-08-09T11:48:50.833Z,38.60
2018-08-09T11:49:50.797Z,37.50
2018-08-09T11:50:50.722Z,37.19
2018-08-09T11:51:50.703Z,37.98
2018-08-09T11:52:50.606Z,35.93
2018-08-09T11:53:50.540Z,37.11
2018-08-09T11:54:50.486Z,37.38
2018-08-09T11:55:50.442Z,37.40
2018-08-09T11:56:50.373Z,37.40
2018-08-09T11:57:50.319Z,36.70
2018-08-09T11:58:50.239Z,36.29
2018-08-09T11:59:50.176Z,36.88
2018-08-09T12:00:50.131Z,37.46
2018-08-09T12:01:50.101Z,36.58
2018-08-09T12:02:49.988Z,35.70
2018-08-09T12:03:49.942Z,35.91
2018-08-09T12:04:49.864Z,35.91
2018-08-09T12:05:49.800Z,37.21
2018-08-09T12:06:49.756Z,35.72
2018-08-09T12:07:49.678Z,35.88
2018-08-09T12:08:49.609Z,35.08
2018-08-09T12:09:49.539Z,35.21
2018-08-09T12:10:49.472Z,35.06
2018-08-09T12:11:49.441Z,35.57
2018-08-09T12:12:49.364Z,37.13
2018-08-09T12:13:49.321Z,36.63
2018-08-09T12:14:49.224Z,35.34
2018-08-09T12:15:49.161Z,35.64
2018-08-09T12:16:49.075Z,35.54
2018-08-09T12:17:49.030Z,36.52
2018-08-09T12:18:48.930Z,35.74
2018-08-09T12:19:48.856Z,35.23
2018-08-09T12:20:48.894Z,34.44
2018-08-09T12:21:48.755Z,33.97
2018-08-09T12:22:48.664Z,34.64
2018-08-09T12:23:48.586Z,34.70
2018-08-09T12:24:48.532Z,36.96
2018-08-09T12:25:48.475Z,34.80
2018-08-09T12:26:39.947Z,33.90
2018-08-09T12:27:39.946Z,34.38
2018-08-09T12:28:39.916Z,31.06
2018-08-09T12:29:39.970Z,33.02
2018-08-09T12:30:39.897Z,32.73
2018-08-09T12:31:39.892Z,32.35
2018-08-09T12:32:39.886Z,30.78
2018-08-09T12:33:39.892Z,29.80
2018-08-09T12:34:39.862Z,31.55
2018-08-09T12:35:39.847Z,30.98
2018-08-09T12:36:39.902Z,32.07
2018-08-09T12:37:39.822Z,31.60
2018-08-09T12:38:39.857Z,31.60
2018-08-09T12:39:39.822Z,32.46
2018-08-09T12:40:39.796Z,31.19
2018-08-09T12:41:46.842Z,32.76
2018-08-09T12:42:39.770Z,31.29
2018-08-09T12:43:39.762Z,31.87
2018-08-09T12:44:39.750Z,31.07
2018-08-09T12:45:39.901Z,30.98
2018-08-09T12:46:39.753Z,30.87
2018-08-09T12:47:39.720Z,30.58
2018-08-09T12:48:39.708Z,30.96
2018-08-09T12:49:39.698Z,31.44
2018-08-09T12:50:39.698Z,31.63
2018-08-09T12:51:39.718Z,32.32
2018-08-09T12:52:39.667Z,31.93
2018-08-09T12:53:39.657Z,31.84
2018-08-09T12:54:39.641Z,31.62
2018-08-09T12:55:39.631Z,31.71
2018-08-09T12:56:39.623Z,31.11
2018-08-09T12:57:39.631Z,31.03
2018-08-09T12:58:39.611Z,30.74
2018-08-09T12:59:39.599Z,33.38
2018-08-09T13:00:39.582Z,32.19
2018-08-09T13:01:39.576Z,31.80
2018-08-09T13:02:39.578Z,32.68
2018-08-09T13:03:39.571Z,31.91
2018-08-09T13:04:39.541Z,31.03
2018-08-09T13:05:39.558Z,31.31
2018-08-09T13:06:39.528Z,31.32
2018-08-09T13:07:39.520Z,30.85
2018-08-09T13:08:39.497Z,30.83
2018-08-09T13:09:39.504Z,32.03
2018-08-09T13:10:39.493Z,31.01
2018-08-09T13:11:39.463Z,30.93
2018-08-09T13:12:39.454Z,30.85
2018-08-09T13:13:39.451Z,30.93
2018-08-09T13:14:39.440Z,30.91
2018-08-09T13:15:39.439Z,30.82
2018-08-09T13:16:39.413Z,30.71
2018-08-09T13:17:39.404Z,30.71
2018-08-09T13:18:39.404Z,29.73
2018-08-09T13:19:39.393Z,30.90
2018-08-09T13:20:39.388Z,30.72
2018-08-09T13:21:39.389Z,30.80
2018-08-09T13:22:39.365Z,30.97
2018-08-09T13:23:39.355Z,31.62
2018-08-09T13:24:39.347Z,29.66
2018-08-09T13:25:39.337Z,30.54
2018-08-09T13:26:39.327Z,29.47
2018-08-09T13:27:39.334Z,29.66
2018-08-09T13:28:39.327Z,29.93
2018-08-09T13:29:39.298Z,30.83
2018-08-09T13:30:39.297Z,30.83
2018-08-09T13:31:39.281Z,30.83
2018-08-09T13:32:39.272Z,29.43
2018-08-09T13:33:39.309Z,29.63
2018-08-09T13:34:39.262Z,29.35
2018-08-09T13:35:39.247Z,29.92
2018-08-09T13:36:39.240Z,28.45
2018-08-09T13:37:39.233Z,29.06
2018-08-09T13:38:39.232Z,28.16
2018-08-09T13:39:39.236Z,28.85
2018-08-09T13:40:39.204Z,29.61
2018-08-09T13:41:39.206Z,27.97
2018-08-09T13:42:39.197Z,28.94
2018-08-09T13:43:39.199Z,28.75
2018-08-09T13:44:39.268Z,28.22
2018-08-09T13:45:39.712Z,27.12
2018-08-09T13:46:39.267Z,27.01
2018-08-09T13:47:39.238Z,26.82
2018-08-09T13:48:39.714Z,26.31
2018-08-09T13:49:39.703Z,25.62
2018-08-09T13:50:39.132Z,25.02
2018-08-09T13:51:39.109Z,25.18
2018-08-09T13:52:39.161Z,24.77
2018-08-09T13:53:39.107Z,23.97
2018-08-09T13:54:39.087Z,24.54
2018-08-09T13:55:39.077Z,23.88
2018-08-09T13:56:39.068Z,24.76
2018-08-09T13:57:39.059Z,23.68
2018-08-09T13:58:39.057Z,24.18
2018-08-09T13:59:39.068Z,23.98
2018-08-09T14:00:39.046Z,23.50
2018-08-09T14:01:39.028Z,23.34
2018-08-09T14:02:39.035Z,23.22
2018-08-09T14:03:39.011Z,24.01
2018-08-09T14:04:39.004Z,23.58
2018-08-09T14:05:39.020Z,23.21
2018-08-09T14:06:38.987Z,23.34
2018-08-09T14:07:38.994Z,22.74
2018-08-09T14:08:38.965Z,22.32
2018-08-09T14:09:38.955Z,22.76
2018-08-09T14:10:38.991Z,22.83
2018-08-09T14:11:38.956Z,22.62
2018-08-09T14:12:38.933Z,23.24
2018-08-09T14:13:38.931Z,23.17
2018-08-09T14:14:38.924Z,21.88
2018-08-09T14:15:38.916Z,22.12
2018-08-09T14:16:38.897Z,22.94
2018-08-09T14:17:38.930Z,22.14
2018-08-09T14:18:38.886Z,22.14
2018-08-09T14:19:38.873Z,23.46
2018-08-09T14:20:38.862Z,21.79
2018-08-09T14:21:38.856Z,22.31
2018-08-09T14:22:38.870Z,20.44
2018-08-09T14:23:38.852Z,20.21
2018-08-09T14:24:38.918Z,19.90
2018-08-09T14:25:38.824Z,22.22
2018-08-09T14:26:38.808Z,22.16
2018-08-09T14:27:38.803Z,22.10
2018-08-09T14:28:38.807Z,21.34
2018-08-09T14:29:38.782Z,20.89
2018-08-09T14:30:38.778Z,20.98
2018-08-09T14:31:38.885Z,19.82
2018-08-09T14:32:38.762Z,18.81
2018-08-09T14:33:38.796Z,17.94
2018-08-09T14:34:38.757Z,19.20
2018-08-09T14:35:38.734Z,18.60
2018-08-09T14:36:38.746Z,17.93
2018-08-09T14:37:38.771Z,19.04
2018-08-09T14:38:38.744Z,17.96
2018-08-09T14:39:38.719Z,19.79
2018-08-09T14:40:38.716Z,19.16
2018-08-09T14:41:38.684Z,19.06
2018-08-09T14:42:38.742Z,20.72
2018-08-09T14:43:38.670Z,19.15
2018-08-09T14:44:38.653Z,17.76
2018-08-09T14:45:38.645Z,18.31
2018-08-09T14:46:38.653Z,18.44
2018-08-09T14:47:38.629Z,17.95
2018-08-09T14:48:38.667Z,18.60
2018-08-09T14:49:38.617Z,16.93
2018-08-09T14:50:38.608Z,16.85
2018-08-09T14:51:38.603Z,17.96
2018-08-09T14:52:38.627Z,18.33
2018-08-09T14:53:38.603Z,18.54
2018-08-09T14:54:38.593Z,19.77
2018-08-09T14:55:38.573Z,19.74
2018-08-09T14:56:38.552Z,19.76
2018-08-09T14:57:38.573Z,21.77
2018-08-09T14:58:38.567Z,21.96
2018-08-09T14:59:38.528Z,19.59
2018-08-09T15:00:38.538Z,19.35
2018-08-09T15:01:38.515Z,21.95
2018-08-09T15:02:38.508Z,22.22
2018-08-09T15:03:38.486Z,23.94
2018-08-09T15:04:38.504Z,24.66
2018-08-09T15:05:38.486Z,23.61
2018-08-09T15:06:38.472Z,22.38
2018-08-09T15:07:38.456Z,22.22
2018-08-09T15:08:38.441Z,23.80
2018-08-09T15:09:38.440Z,23.90
2018-08-09T15:10:38.456Z,23.74
2018-08-09T15:11:38.416Z,24.65
2018-08-09T15:12:38.408Z,25.68
2018-08-09T15:13:38.397Z,25.03
2018-08-09T15:14:38.382Z,26.98
2018-08-09T15:15:38.410Z,26.90
2018-08-09T15:16:38.392Z,27.59
2018-08-09T15:17:38.360Z,28.36
2018-08-09T15:18:38.381Z,27.84
2018-08-09T15:19:38.356Z,27.05
2018-08-09T15:20:39.236Z,26.78
2018-08-09T15:21:38.325Z,28.44
2018-08-09T15:22:38.361Z,28.75
2018-08-09T15:23:38.367Z,29.25
2018-08-09T15:24:38.333Z,29.24
2018-08-09T15:25:38.290Z,29.22
2018-08-09T15:26:38.278Z,27.26
2018-08-09T15:27:38.273Z,29.89
2018-08-09T15:28:38.292Z,26.36
2018-08-09T15:29:38.242Z,26.62
2018-08-09T15:30:38.229Z,27.15
2018-08-09T15:31:38.218Z,28.34
2018-08-09T15:32:38.198Z,27.56
2018-08-09T15:33:38.262Z,29.50
2018-08-09T15:34:38.208Z,28.40
2018-08-09T15:35:38.174Z,28.78
2018-08-09T15:36:38.162Z,24.82
2018-08-09T15:37:38.151Z,23.59
2018-08-09T15:38:38.140Z,24.44
2018-08-09T15:39:38.159Z,24.63
2018-08-09T15:40:38.126Z,21.84
2018-08-09T15:41:38.112Z,19.40
2018-08-09T15:42:38.113Z,18.87
2018-08-09T15:43:38.094Z,21.39
2018-08-09T15:44:38.078Z,24.10
2018-08-09T15:45:38.144Z,25.21
2018-08-09T15:46:38.061Z,22.78
2018-08-09T15:47:38.168Z,19.50
2018-08-09T15:48:38.038Z,17.72
2018-08-09T15:49:38.031Z,17.70
2018-08-09T15:50:38.041Z,18.49
2018-08-09T15:51:38.045Z,19.09
2018-08-09T15:52:38.004Z,18.32
2018-08-09T15:53:37.994Z,18.13
2018-08-09T15:54:37.990Z,17.44
2018-08-09T15:55:37.975Z,17.51
2018-08-09T15:56:37.975Z,17.12
2018-08-09T15:57:37.976Z,17.02
2018-08-09T15:58:37.947Z,17.49
2018-08-09T15:59:37.936Z,17.47
2018-08-09T16:00:37.924Z,17.18
2018-08-09T16:01:37.923Z,16.83
2018-08-09T16:02:38.005Z,16.92
2018-08-09T16:03:37.911Z,16.64
2018-08-09T16:04:37.889Z,17.64
2018-08-09T16:05:37.881Z,18.10
2018-08-09T16:06:37.867Z,19.47
2018-08-09T16:07:37.882Z,18.48
2018-08-09T16:08:37.851Z,17.99
2018-08-09T16:09:37.867Z,16.83
2018-08-09T16:10:37.832Z,17.51
2018-08-09T16:11:37.853Z,18.40
2018-08-09T16:12:37.820Z,17.92
2018-08-09T16:13:37.801Z,16.95
2018-08-09T16:14:37.809Z,17.82
2018-08-09T16:15:37.810Z,17.50
2018-08-09T16:16:37.773Z,16.64
2018-08-09T16:17:37.763Z,17.10
2018-08-09T16:18:37.759Z,18.05
2018-08-09T16:19:37.756Z,17.40
2018-08-09T16:20:37.744Z,17.60
2018-08-09T16:21:37.789Z,17.50
2018-08-09T16:22:37.749Z,16.71
2018-08-09T16:24:37.715Z,18.15
2018-08-09T16:25:37.687Z,17.54
2018-08-09T16:26:37.683Z,17.24
2018-08-09T16:27:37.686Z,16.75
2018-08-09T16:28:37.657Z,17.24
2018-08-09T16:29:37.649Z,16.78
2018-08-09T16:30:37.651Z,17.27
2018-08-09T16:31:37.635Z,18.67
2018-08-09T16:32:37.644Z,18.27
2018-08-09T16:33:37.629Z,19.46
2018-08-09T16:34:37.603Z,18.40
2018-08-09T16:35:37.665Z,17.97
2018-08-09T16:36:37.584Z,17.97
2018-08-09T16:37:37.577Z,18.52
2018-08-09T16:38:37.623Z,17.74
2018-08-09T16:39:37.569Z,17.56
2018-08-09T16:40:37.551Z,18.62
2018-08-09T16:41:37.534Z,17.76
2018-08-09T16:42:37.542Z,18.54
2018-08-09T16:43:37.515Z,18.26
2018-08-09T16:44:37.507Z,19.25
2018-08-09T16:45:37.558Z,18.46
2018-08-09T16:46:37.483Z,18.15
2018-08-09T16:47:37.476Z,18.47
2018-08-09T16:48:37.468Z,19.05
2018-08-09T16:49:37.468Z,18.65
2018-08-09T16:50:37.452Z,19.59
2018-08-09T16:51:37.458Z,23.82
2018-08-09T16:52:37.427Z,25.58
2018-08-09T16:53:37.431Z,23.41
2018-08-09T16:54:37.410Z,24.04
2018-08-09T16:55:37.403Z,23.25
2018-08-09T16:56:37.418Z,23.93
2018-08-09T16:57:37.399Z,24.51
2018-08-09T16:58:37.368Z,22.88
2018-08-09T16:59:37.359Z,23.28
2018-08-09T17:00:37.362Z,25.45
2018-08-09T17:01:37.346Z,28.26
2018-08-09T17:02:37.338Z,30.66
2018-08-09T17:03:37.342Z,30.38
2018-08-09T17:04:37.359Z,31.70
2018-08-09T17:05:37.308Z,34.54
2018-08-09T17:06:37.362Z,35.95
2018-08-09T17:07:37.312Z,37.23
2018-08-09T17:08:37.306Z,38.70
2018-08-09T17:09:37.273Z,39.01
2018-08-09T17:10:37.249Z,39.79
2018-08-09T17:11:37.247Z,40.39
2018-08-09T17:12:37.248Z,40.39
2018-08-09T17:13:37.224Z,40.21
2018-08-09T17:14:37.240Z,42.13
2018-08-09T17:15:37.202Z,42.72
2018-08-09T17:16:37.189Z,42.66
2018-08-09T17:17:37.191Z,43.15
2018-08-09T17:18:37.169Z,44.56
2018-08-09T17:19:37.158Z,43.98
2018-08-09T17:20:37.169Z,44.48
2018-08-09T17:21:37.206Z,44.85
2018-08-09T17:22:37.125Z,44.85
2018-08-09T17:23:37.108Z,43.70
2018-08-09T17:24:37.098Z,40.66
2018-08-09T17:25:37.144Z,41.14
2018-08-09T17:26:37.107Z,40.61
2018-08-09T17:27:37.101Z,41.45
2018-08-09T17:28:37.062Z,42.38
2018-08-09T17:29:37.074Z,45.54
2018-08-09T17:30:37.055Z,45.07
2018-08-09T17:31:37.038Z,45.47
2018-08-09T17:32:37.024Z,45.86
2018-08-09T17:33:37.002Z,45.45
2018-08-09T17:34:37.014Z,45.57
2018-08-09T17:35:36.991Z,45.67
2018-08-09T17:36:36.977Z,45.76
2018-08-09T17:37:37.019Z,45.57
2018-08-09T17:38:36.954Z,46.18
2018-08-09T17:39:36.932Z,46.50
2018-08-09T17:40:36.957Z,46.88
2018-08-09T17:41:36.935Z,45.59
2018-08-09T17:42:36.904Z,45.86
2018-08-09T17:43:36.911Z,46.30
2018-08-09T17:44:36.899Z,46.33
2018-08-09T17:45:36.882Z,47.14
2018-08-09T17:46:36.867Z,47.31
2018-08-09T17:47:36.865Z,46.60
2018-08-09T17:48:36.860Z,46.72
2018-08-09T17:49:36.960Z,46.72
2018-08-09T17:50:36.818Z,47.14
2018-08-09T17:51:36.813Z,47.44
2018-08-09T17:52:36.811Z,47.04
2018-08-09T17:53:36.786Z,47.74
2018-08-09T17:54:36.787Z,48.05
2018-08-09T17:55:36.782Z,47.46
2018-08-09T17:56:36.757Z,48.47
2018-08-09T17:57:36.751Z,46.98
2018-08-09T17:58:36.742Z,48.57
2018-08-09T17:59:36.727Z,48.15
2018-08-09T18:00:36.715Z,47.66
2018-08-09T18:01:36.718Z,48.15
2018-08-09T18:02:36.689Z,48.27
2018-08-09T18:03:36.682Z,48.38
2018-08-09T18:04:36.702Z,48.30
2018-08-09T18:05:36.662Z,48.99
2018-08-09T18:06:36.651Z,48.08
2018-08-09T18:07:36.693Z,48.40
2018-08-09T18:08:36.672Z,47.61
2018-08-09T18:09:36.626Z,47.71
2018-08-09T18:10:36.668Z,48.30
2018-08-09T18:11:36.642Z,48.60
2018-08-09T18:12:36.605Z,48.42
2018-08-09T18:13:36.638Z,48.60
2018-08-09T18:14:36.558Z,48.72
2018-08-09T18:15:36.552Z,48.40
2018-08-09T18:16:36.545Z,48.42
2018-08-09T18:17:36.544Z,47.61
2018-08-09T18:18:36.534Z,48.00
2018-08-09T18:19:36.531Z,47.61
2018-08-09T18:20:36.512Z,47.13
2018-08-09T18:21:36.501Z,47.61
2018-08-09T18:22:36.479Z,47.41
2018-08-09T18:23:36.469Z,47.01
2018-08-09T18:24:36.473Z,47.71
2018-08-09T18:25:36.463Z,46.93
2018-08-09T18:26:36.478Z,47.73
2018-08-09T18:27:36.493Z,47.73
2018-08-09T18:28:36.414Z,47.31
2018-08-09T18:29:36.412Z,47.50
2018-08-09T18:30:36.396Z,47.50
2018-08-09T18:31:36.435Z,47.03
2018-08-09T18:32:36.375Z,47.23
2018-08-09T18:33:36.381Z,47.73
2018-08-09T18:34:36.355Z,47.43
2018-08-09T18:35:36.345Z,46.93
2018-08-09T18:36:36.359Z,46.42
2018-08-09T18:37:36.356Z,47.53
2018-08-09T18:38:36.333Z,47.53
2018-08-09T18:39:36.314Z,47.11
2018-08-09T18:40:36.291Z,47.71
2018-08-09T18:41:36.277Z,46.71
2018-08-09T18:42:36.274Z,46.22
2018-08-09T18:43:36.345Z,46.22
2018-08-09T18:44:36.242Z,46.51
2018-08-09T18:45:36.265Z,45.72
2018-08-09T18:46:36.218Z,45.15
2018-08-09T18:47:36.215Z,45.84
2018-08-09T18:48:36.206Z,45.82
2018-08-09T18:49:36.316Z,45.52
2018-08-09T18:50:36.181Z,45.03
2018-08-09T18:51:36.176Z,44.65
2018-08-09T18:52:36.181Z,45.64
2018-08-09T18:53:36.144Z,45.84
2018-08-09T18:54:36.164Z,44.95
2018-08-09T18:55:36.277Z,44.85
2018-08-09T18:56:36.111Z,44.06
2018-08-09T18:57:36.103Z,44.25
2018-08-09T18:58:36.093Z,43.46
2018-08-09T18:59:36.091Z,42.65
2018-08-09T19:00:36.090Z,42.37
2018-08-09T19:01:36.075Z,42.77
2018-08-09T19:02:36.056Z,42.27
2018-08-09T19:03:36.043Z,42.47
2018-08-09T19:04:36.035Z,42.05
2018-08-09T19:05:36.016Z,42.57
2018-08-09T19:06:36.024Z,42.47
2018-08-09T19:07:36.009Z,42.77
2018-08-09T19:08:36.008Z,42.57
2018-08-09T19:09:35.977Z,42.66
2018-08-09T19:10:35.968Z,43.06
2018-08-09T19:11:35.960Z,42.79
2018-08-09T19:12:35.958Z,43.28
2018-08-09T19:13:35.948Z,43.28
2018-08-09T19:14:35.936Z,43.18
2018-08-09T19:15:35.949Z,42.37
2018-08-09T19:16:35.927Z,42.37
2018-08-09T19:17:35.910Z,42.19
2018-08-09T19:18:35.900Z,42.96
2018-08-09T19:19:35.953Z,42.39
2018-08-09T19:20:35.882Z,43.16
2018-08-09T19:21:35.863Z,43.58
2018-08-09T19:22:35.841Z,43.48
2018-08-09T19:23:35.856Z,43.08
2018-08-09T19:24:35.842Z,43.18
2018-08-09T19:25:35.821Z,42.88
2018-08-09T19:26:35.795Z,42.88
2018-08-09T19:27:35.803Z,43.38
2018-08-09T19:28:35.781Z,43.58
2018-08-09T19:29:35.803Z,43.88
2018-08-09T19:30:35.771Z,44.27
2018-08-09T19:31:35.749Z,44.40
2018-08-09T19:32:35.750Z,45.27
2018-08-09T19:33:35.721Z,44.79
2018-08-09T19:34:35.711Z,45.89
2018-08-09T19:35:35.701Z,49.21
2018-08-09T19:36:35.708Z,51.54
2018-08-09T19:37:35.702Z,54.96
2018-08-09T19:38:35.681Z,58.40
2018-08-09T19:39:35.662Z,59.65
2018-08-09T19:40:35.641Z,61.57
2018-08-09T19:41:35.633Z,63.70
2018-08-09T19:42:35.656Z,65.30
2018-08-09T19:43:35.633Z,65.63
2018-08-09T19:44:35.610Z,66.66
2018-08-09T19:45:35.591Z,65.66
2018-08-09T19:46:35.596Z,66.69
2018-08-09T19:47:35.592Z,68.13
2018-08-09T19:48:35.612Z,67.52
2018-08-09T19:49:35.565Z,70.16
2018-08-09T19:50:35.597Z,67.43
2018-08-09T19:51:35.667Z,68.19
2018-08-09T19:52:35.809Z,68.19
2018-08-09T19:53:36.168Z,69.69
2018-08-09T19:54:36.581Z,70.26
2018-08-09T19:55:37.143Z,72.77
